Overview Statistics Trail Chart Weather Telemetry Raw packets
 

This is the latest recevied weather packets stored in our database for station/object DK9HI-WX. If no packets are shown the sender has not sent any weather packets the latest 10 day(s).

<< 1 2 3 4 5 6 >>
Time Temp. Humidity Pressure Rain* Wind** Luminosity Snow
1788607660 20° C 70% 1018.5 hPa - - - -
1788607028 20.56° C 68% 1018.4 hPa - - - -
1788606428 20° C 70% 1018.4 hPa - - - -
1788605828 19.44° C 71% 1018.4 hPa - - - -
1788605228 19.44° C 73% 1018.2 hPa - - - -
1788604628 19.44° C 76% 1018.4 hPa - - - -
1788604028 18.89° C 74% 1018.5 hPa - - - -
1788603428 18.89° C 76% 1018.4 hPa - - - -
1788602828 18.89° C 76% 1018.2 hPa - - - -
1788602228 19.44° C 74% 1018.2 hPa - - - -
1788601628 19.44° C 76% 1018.1 hPa - - - -
1788601028 18.89° C 78% 1018.2 hPa - - - -
1788600428 19.44° C 77% 1018.1 hPa - - - -
1788055822 20° C 100% 1009.1 hPa - - - -
1788055222 20° C 100% 1009 hPa - - - -
1788054622 20° C 100% 1009.1 hPa - - - -
1788054022 20° C 100% 1009 hPa - - - -
1788053422 20° C 100% 1009.1 hPa - - - -
1788052822 20° C 100% 1009.2 hPa - - - -
1788052222 19.44° C 100% 1009.2 hPa - - - -
1788051622 19.44° C 100% 1009.3 hPa - - - -
1788051022 19.44° C 100% 1009.4 hPa - - - -
1788050422 19.44° C 100% 1009.4 hPa - - - -
1788049822 19.44° C 100% 1009.5 hPa - - - -
1788049222 19.44° C 100% 1009.6 hPa - - - -

* Rain since midnight (hover to see other rain measurements)
** Current wind speed in m/s (hover to see current wind gust speed)